Date,TemperatureHighF,TemperatureAvgF,TemperatureLowF,DewpointHighF,DewpointAvgF,DewpointLowF,HumidityHigh,HumidityAvg,HumidityLow,PressureMaxIn,PressureMinIn,WindSpeedMaxMPH,WindSpeedAvgMPH,GustSpeedMaxMPH,PrecipitationSumIn
2013-1-1,24,20,15,21,16,12,98,86,64,24.31,24.15,72,17,72,1.22
2013-1-2,25,18,14,16,5,-1,95,60,32,24.37,24.30,23,12,23,0.00
2013-1-3,30,23,15,8,3,0,57,43,31,24.30,24.18,30,21,31,0.00
2013-1-4,33,29,24,22,13,-2,78,54,26,24.25,24.15,59,30,62,0.57
2013-1-5,30,26,23,20,16,11,79,66,54,24.29,24.14,33,20,34,0.00
2013-1-6,34,28,25,22,15,8,69,57,41,24.13,23.99,53,27,53,0.02
2013-1-7,33,29,26,25,19,15,74,66,53,24.04,23.77,54,29,65,0.93
2013-1-8,35,30,27,25,18,13,72,63,52,24.09,23.81,50,31,55,1.00
2013-1-9,41,36,32,26,23,20,72,60,46,24.04,23.78,53,33,55,0.00
2013-1-10,36,14,-1,26,10,-4,99,85,53,23.86,23.76,48,32,48,0.00
2013-1-11,0,-4,-7,-3,-8,-11,88,84,82,24.08,23.84,39,24,41,0.00
2013-1-12,9,2,-5,7,-1,-8,91,87,84,24.12,24.01,0,0,0,0.00
2013-1-13,8,5,2,4,1,-2,89,84,74,24.16,24.10,0,0,0,0.00
2013-1-14,16,8,2,14,2,-5,94,78,69,24.12,24.00,0,0,0,0.00
2013-1-15,29,22,14,20,16,13,95,79,57,24.26,24.11,40,14,40,0.00
2013-1-16,38,33,23,19,16,12,73,48,37,24.39,24.23,43,27,44,0.00
2013-1-17,38,35,32,21,16,11,57,45,35,24.39,24.17,67,36,72,1.15
2013-1-18,39,37,34,16,10,4,45,33,23,24.20,24.08,60,37,66,3.02
2013-1-19,37,34,25,16,10,5,64,37,26,24.29,24.18,46,28,46,0.00
2013-1-20,33,19,12,20,14,9,96,83,48,24.41,24.26,40,12,41,0.00
2013-1-21,42,37,30,15,4,-4,54,26,16,24.27,24.10,48,35,51,0.06
2013-1-22,44,38,34,44,13,-12,23,10,10,24.20,24.13,46,30,46,0.06
2013-1-23,43,38,34,42,8,-12,48,25,10,24.19,24.01,35,16,43,0.00
2013-1-24,41,35,30,29,19,12,80,52,34,24.19,24.00,54,29,55,0.08
2013-1-25,38,35,32,30,24,19,83,66,55,24.18,24.02,36,19,36,0.00
2013-1-26,45,34,26,30,28,25,99,80,46,24.04,23.88,36,16,37,0.00
2013-1-27,27,23,19,26,15,10,99,72,54,23.94,23.89,29,16,29,0.00
2013-1-28,25,20,17,15,11,8,86,68,58,23.92,23.80,36,24,36,0.00
2013-1-29,20,4,-10,16,1,-14,95,87,76,24.12,23.80,45,20,46,0.01
2013-1-30,29,20,8,22,16,6,96,85,71,24.10,23.92,38,22,49,0.00
2013-1-31,34,26,8,27,21,6,99,83,69,24.16,24.08,43,21,44,0.00
2013-2-1,34,30,25,26,22,18,88,73,58,24.29,24.07,43,28,46,0.04
2013-2-2,38,31,25,23,20,15,75,63,46,24.37,24.23,40,21,41,0.00
2013-2-3,38,34,31,20,15,1,63,47,21,24.24,24.00,49,31,53,0.04
2013-2-4,33,32,30,24,22,19,74,67,60,24.04,23.94,58,38,61,0.01
2013-2-5,39,34,31,31,23,20,81,64,56,24.06,23.86,53,23,55,0.01
2013-2-6,33,29,26,21,16,13,72,59,49,24.12,23.87,45,30,55,0.02
2013-2-7,34,28,21,17,14,12,71,56,40,24.12,24.01,36,18,36,0.00
2013-2-8,38,30,25,20,16,13,69,58,46,24.06,24.01,17,7,17,0.00
2013-2-9,30,23,19,22,16,11,98,76,48,24.04,23.92,40,16,43,0.07
2013-2-10,19,14,10,18,13,8,97,94,92,24.17,24.06,18,4,19,0.07
2013-2-11,26,16,8,25,14,6,99,90,79,24.12,24.02,10,1,12,0.00
2013-2-12,30,26,21,26,20,17,93,79,71,24.12,23.98,69,24,72,2.74
2013-2-13,34,29,16,25,21,14,97,72,48,24.24,23.98,59,32,69,3.02
2013-2-14,25,19,13,23,16,11,96,88,72,24.35,24.24,23,10,24,0.00
2013-2-15,36,29,21,25,19,14,77,66,55,24.37,24.24,41,21,41,0.00
2013-2-16,43,37,31,26,24,21,83,60,46,24.25,23.84,44,25,44,0.00
2013-2-17,32,24,18,27,21,14,99,91,58,24.08,23.82,40,20,43,0.00
2013-2-18,25,18,14,23,16,10,97,90,66,24.12,23.96,15,1,15,0.00
2013-2-19,25,20,16,19,14,10,96,77,65,23.95,23.81,44,23,46,0.00
2013-2-20,30,21,14,26,19,14,97,93,82,23.95,23.88,17,4,17,0.00
2013-2-21,24,20,15,16,11,8,85,68,56,24.00,23.93,34,19,36,0.00
2013-2-22,31,25,20,19,15,11,81,66,57,23.97,23.74,43,29,46,0.00
2013-2-23,31,24,19,23,16,10,97,74,51,24.11,23.73,43,24,43,0.00
2013-2-24,26,22,16,18,13,9,97,69,57,24.17,24.05,41,22,42,0.00
2013-2-25,30,25,21,18,14,12,69,64,58,24.06,23.91,44,26,44,0.00
2013-2-26,28,22,19,22,15,9,92,72,63,24.23,23.96,40,20,42,0.00
2013-2-27,31,24,17,15,11,8,71,58,44,24.26,24.21,39,21,41,0.00
2013-2-28,34,29,24,26,19,14,85,65,49,24.32,24.21,45,24,45,0.00
2013-3-1,41,38,30,31,29,25,80,70,62,24.35,24.26,54,32,64,0.31
2013-3-2,48,41,36,29,26,21,69,55,35,24.34,24.01,58,24,67,0.24
2013-3-3,38,27,12,30,19,3,96,74,36,24.06,23.78,78,39,82,29.62
2013-3-4,23,12,7,23,11,5,99,94,91,24.29,24.06,59,20,65,0.00
2013-3-5,26,16,7,21,13,5,97,88,64,24.22,24.05,27,4,29,0.00
2013-3-6,33,28,21,30,20,12,99,74,53,24.04,23.81,40,24,45,0.00
2013-3-7,34,30,26,29,19,12,95,64,47,24.13,23.90,31,13,34,0.00
2013-3-8,44,30,24,24,18,12,87,63,31,24.12,24.00,23,9,23,0.00
2013-3-9,39,29,22,22,16,13,86,59,39,24.29,24.06,29,12,34,0.00
2013-3-10,39,32,26,24,18,12,76,57,35,24.28,24.13,44,22,48,0.00
2013-3-11,30,22,15,22,18,14,97,85,65,24.30,24.11,44,19,48,0.00
2013-3-12,42,25,14,29,19,12,95,79,59,24.30,24.13,43,18,47,0.00
2013-3-13,50,43,38,30,28,23,71,56,37,24.29,24.14,49,28,53,0.00
2013-3-14,51,46,42,28,25,21,55,44,33,24.29,24.11,33,17,34,0.00
2013-3-15,47,41,27,29,25,22,92,54,39,24.16,24.08,42,23,45,0.00
2013-3-16,43,36,28,28,24,18,87,63,43,24.15,23.80,36,18,39,0.00
2013-3-17,34,19,5,26,13,2,95,77,50,24.01,23.68,47,25,53,0.01
2013-3-18,28,20,5,16,12,3,95,73,48,24.04,23.89,50,24,53,0.00
2013-3-19,36,23,11,19,7,-6,97,57,18,24.26,24.04,37,15,38,0.00
2013-3-20,47,34,25,32,19,7,97,55,39,24.13,23.72,43,31,49,0.00
2013-3-21,32,25,20,18,10,2,67,53,32,23.98,23.77,53,31,54,0.41
2013-3-22,20,14,6,15,11,4,95,88,63,24.19,23.97,39,20,40,0.00
2013-3-23,26,13,5,21,6,0,90,74,44,24.25,24.19,27,6,28,0.00
2013-3-24,30,19,11,9,3,-1,76,51,27,24.29,24.22,17,7,17,0.00
2013-3-25,38,26,14,11,5,0,64,44,23,24.23,24.09,27,15,27,0.00
2013-3-26,48,35,27,24,16,4,73,47,25,24.10,24.06,15,7,16,0.00
2013-3-27,49,38,29,28,20,15,63,48,31,24.16,24.09,21,11,25,0.00
2013-3-28,52,41,34,33,27,21,80,59,30,24.20,24.15,29,11,30,0.00
2013-3-29,47,41,36,32,28,22,78,62,39,24.27,24.19,41,17,44,0.00
2013-3-30,50,40,34,28,24,14,75,53,24,24.33,24.19,30,18,36,0.00
2013-3-31,46,40,35,27,24,21,59,53,41,24.28,24.17,36,16,40,0.00
2013-4-1,51,40,31,26,22,17,71,49,30,24.22,24.17,27,14,27,0.00
2013-4-2,59,45,33,30,22,17,55,40,21,24.18,24.11,36,14,36,0.00
2013-4-3,51,44,40,34,30,27,74,59,44,24.25,24.11,42,18,44,0.00
2013-4-4,57,45,34,38,30,20,82,58,24,24.19,23.97,36,13,41,0.00
2013-4-5,51,43,38,40,30,18,91,60,29,24.02,23.90,50,30,52,0.02
2013-4-6,46,40,34,34,27,23,89,60,42,24.04,23.94,43,23,43,0.00
2013-4-7,38,31,19,34,26,18,99,83,61,23.99,23.80,46,20,47,0.07
2013-4-8,18,12,9,18,10,7,97,92,87,24.29,23.96,22,9,23,0.00
2013-4-9,28,17,9,23,12,6,94,83,64,24.35,24.25,18,1,21,0.00
2013-4-10,45,31,16,34,23,12,86,73,58,24.26,23.91,46,20,49,0.00
2013-4-11,43,36,27,32,25,17,99,67,39,24.10,23.91,40,23,48,0.00
2013-4-12,42,32,23,34,23,15,99,73,35,24.16,23.81,29,12,33,0.01
2013-4-13,40,32,23,32,17,1,99,57,26,23.82,23.63,46,26,51,0.01
2013-4-14,23,17,13,20,16,12,97,94,71,24.02,23.81,38,24,39,0.00
2013-4-15,23,16,10,21,14,9,95,92,86,24.18,24.00,25,10,27,0.00
2013-4-16,26,17,13,24,15,12,96,94,90,24.30,24.14,15,2,16,0.00
2013-4-17,33,18,12,31,15,6,96,89,53,24.31,24.27,0,0,0,0.01
2013-4-18,38,30,19,24,16,6,64,57,51,24.27,24.19,33,12,33,0.00
2013-4-19,40,35,29,30,26,20,83,72,62,24.19,23.96,37,26,47,0.00
2013-4-20,46,38,25,32,28,21,99,69,41,24.14,23.99,47,32,53,0.01
2013-4-21,25,18,14,24,16,13,99,93,85,24.29,24.12,34,8,35,0.00
2013-4-22,28,19,13,24,14,-1,94,82,38,24.41,24.28,1,0,1,0.00
2013-4-23,35,26,17,22,14,4,76,60,39,24.34,24.22,29,8,30,0.00
2013-4-24,45,35,24,28,21,13,99,63,30,24.29,24.05,47,21,49,0.01
2013-4-25,54,44,36,25,19,13,52,38,22,24.18,24.01,39,25,45,0.01
2013-4-26,60,50,41,28,24,19,51,37,21,24.28,24.18,40,22,43,0.00
2013-4-27,60,52,45,31,22,10,59,33,14,24.26,24.07,59,34,65,0.50
2013-4-28,53,45,40,32,27,18,69,49,27,24.15,23.96,49,29,59,0.30
2013-4-29,46,38,24,30,20,6,99,49,22,23.97,23.72,68,37,72,5.49
2013-4-30,26,22,19,26,22,18,99,97,93,24.31,23.93,37,15,40,0.02
2013-5-1,38,28,18,19,15,9,96,61,34,24.59,24.31,26,10,30,0.00
2013-5-2,55,42,27,55,12,0,60,34,11,24.59,24.38,29,16,34,0.00
2013-5-3,46,39,34,36,28,11,99,73,24,24.38,24.33,37,19,37,0.28
2013-5-4,48,39,32,43,36,32,99,90,60,24.41,24.35,27,16,29,0.46
2013-5-5,62,47,36,36,32,28,84,59,29,24.34,24.19,29,13,32,0.00
2013-5-6,70,54,43,35,28,13,54,39,12,24.21,24.10,26,14,27,0.00
2013-5-7,61,53,46,39,32,25,62,45,31,24.27,24.08,54,27,57,0.48
2013-5-8,66,51,37,42,34,28,79,55,26,24.31,24.27,24,10,25,0.00
2013-5-9,67,58,48,42,34,22,70,43,19,24.33,24.28,28,12,32,0.00
2013-5-10,57,49,38,37,30,22,86,50,28,24.53,24.32,59,19,59,0.30
2013-5-11,71,55,40,36,30,18,58,39,14,24.49,24.30,33,17,33,0.00
2013-5-12,75,65,58,40,36,25,44,34,19,24.32,24.19,35,19,35,0.00
2013-5-13,77,64,49,46,39,16,67,42,11,24.23,23.98,49,21,55,0.00
2013-5-14,60,49,41,60,21,-2,61,35,10,24.20,24.10,42,21,56,0.00
2013-5-15,61,51,43,34,22,10,57,31,18,24.20,24.13,32,7,32,0.00
2013-5-16,58,49,42,44,38,32,89,67,44,24.13,24.05,25,13,30,0.05
2013-5-17,47,43,37,45,41,35,99,92,79,24.12,24.08,20,10,21,0.20
2013-5-18,52,44,39,46,41,22,99,92,43,24.17,24.11,27,13,27,0.18
2013-5-19,44,42,39,43,41,39,99,99,99,24.29,24.16,38,24,43,0.35
2013-5-20,52,45,41,51,43,38,99,93,70,24.35,24.27,30,14,34,0.43
2013-5-21,62,50,39,42,33,18,99,59,24,24.27,24.02,41,26,50,0.01
2013-5-22,50,45,39,45,39,32,99,80,55,24.04,23.93,56,41,68,0.02
2013-5-23,45,40,34,44,39,34,99,94,72,24.10,23.97,46,20,48,0.15
2013-5-24,54,42,32,36,31,22,99,69,30,24.16,24.01,44,17,47,0.24
2013-5-25,59,48,38,43,36,30,81,64,41,24.19,24.11,31,9,35,0.01
2013-5-26,60,49,41,48,40,31,99,73,46,24.18,24.09,38,10,44,0.14
2013-5-27,55,45,38,46,41,36,99,85,60,24.10,24.01,27,11,28,0.14
2013-5-28,54,46,42,46,42,36,99,87,62,24.01,23.96,19,9,20,0.04
2013-5-29,51,46,44,46,43,40,99,88,73,23.99,23.92,19,8,21,0.05
2013-5-30,44,41,38,44,40,36,99,96,81,24.14,23.94,38,20,38,0.30
2013-5-31,41,38,36,41,38,35,99,99,90,24.42,24.13,60,26,60,0.83
2013-6-1,58,48,38,45,37,28,99,68,35,24.41,24.22,27,10,27,0.09
2013-6-2,54,47,40,47,42,39,99,84,65,24.22,24.03,33,14,34,0.31
2013-6-3,40,36,32,40,34,26,99,91,73,24.28,23.99,60,28,62,1.48
2013-6-4,49,38,32,42,32,26,99,81,65,24.37,24.27,26,12,27,0.20
2013-6-5,70,52,36,43,36,22,99,62,24,24.35,24.21,21,13,23,0.01
2013-6-6,76,60,46,51,43,36,91,55,30,24.32,24.21,23,9,23,0.00
2013-6-7,68,60,52,49,43,37,81,56,36,24.22,24.02,44,22,46,0.00
2013-6-8,67,58,46,45,38,26,97,52,22,24.18,24.09,46,16,46,0.02
2013-6-9,72,61,53,61,30,4,49,32,10,24.19,24.03,37,21,43,0.00
2013-6-10,65,57,47,47,36,25,72,46,33,24.12,24.05,27,9,27,0.00
2013-6-11,57,49,44,49,45,42,99,86,63,24.24,24.02,28,15,29,0.00
2013-6-12,68,53,45,56,50,37,99,90,50,24.25,24.11,47,18,49,0.11
2013-6-13,52,46,41,52,44,37,99,95,76,24.20,24.13,34,15,34,0.22
2013-6-14,53,46,41,37,33,27,79,61,38,24.24,24.14,41,22,43,0.00
2013-6-15,66,54,43,66,28,6,65,39,10,24.27,24.21,37,19,40,0.00
2013-6-16,61,55,51,49,39,27,76,57,36,24.35,24.27,25,13,27,0.00
2013-6-17,72,60,50,52,46,42,82,62,34,24.34,24.21,30,16,31,0.00
2013-6-18,77,63,52,59,48,29,99,61,22,24.20,24.01,45,23,45,0.01
2013-6-19,58,50,43,55,48,39,99,93,58,24.04,23.88,57,19,57,0.41
2013-6-20,54,45,40,42,38,35,89,75,56,24.23,23.94,38,21,39,0.41
2013-6-21,59,50,42,45,37,32,82,61,46,24.24,24.19,17,7,19,0.02
2013-6-22,59,47,40,48,42,36,99,84,52,24.23,24.16,20,9,22,0.09
2013-6-23,66,56,45,45,39,31,92,56,28,24.19,24.02,27,10,27,0.00
2013-6-24,70,58,53,56,44,34,83,60,37,24.03,23.91,43,12,46,0.01
2013-6-25,68,57,50,49,44,39,89,65,38,24.13,23.96,45,17,46,0.01
2013-6-26,65,57,51,49,44,41,79,63,41,24.32,24.13,34,18,35,0.01
2013-6-27,76,63,54,50,44,39,69,51,29,24.47,24.32,31,20,33,0.00
2013-6-28,81,70,61,57,48,41,75,47,25,24.50,24.43,21,9,22,0.00
2013-6-29,80,68,60,60,53,47,76,60,33,24.45,24.34,40,15,40,0.00
2013-6-30,79,68,57,60,54,51,84,63,40,24.42,24.32,30,14,38,0.01
2013-7-1,81,72,62,64,55,44,75,56,35,24.47,24.41,18,8,21,0.00
2013-7-2,90,76,64,60,48,31,65,42,13,24.42,24.27,22,12,23,0.00
2013-7-3,85,77,68,62,49,40,80,41,23,24.29,24.21,27,16,29,0.00
2013-7-4,81,71,59,64,48,31,99,53,17,24.23,24.10,21,11,24,0.00
2013-7-5,69,62,50,52,46,37,94,59,30,24.16,24.07,32,13,33,0.00
2013-7-6,67,56,47,53,49,46,99,78,47,24.20,24.12,26,11,27,0.00
2013-7-7,76,61,47,60,52,46,99,76,36,24.22,24.15,24,11,27,0.01
2013-7-8,72,59,52,57,51,36,99,77,28,24.33,24.18,48,15,59,0.05
2013-7-9,74,63,48,49,42,28,99,52,22,24.40,24.33,18,9,19,0.05
2013-7-10,87,72,54,87,48,17,79,34,10,24.35,24.14,26,13,27,0.00
2013-7-11,78,71,57,49,36,25,59,30,16,24.15,24.09,45,18,45,0.00
2013-7-12,76,64,54,44,39,28,60,41,20,24.18,24.13,50,15,54,0.00
2013-7-13,67,59,49,45,41,38,74,52,36,24.37,24.17,32,15,32,0.00
2013-7-14,78,64,52,78,39,14,70,42,10,24.38,24.27,40,20,40,0.00
2013-7-15,85,67,50,85,55,19,90,47,10,24.37,24.17,49,23,50,0.01
2013-7-16,71,55,41,50,46,41,99,74,45,24.42,24.35,27,15,30,0.01
2013-7-17,83,64,53,58,54,42,99,72,28,24.38,24.28,36,16,51,0.02
2013-7-18,81,69,59,54,39,25,82,36,13,24.39,24.34,22,13,27,0.02
2013-7-19,82,70,60,82,46,16,50,25,10,24.37,24.27,30,13,36,0.00
2013-7-20,82,70,51,82,42,15,85,31,10,24.30,24.14,24,8,26,0.00
2013-7-21,83,72,62,78,34,13,40,18,10,24.20,24.13,35,12,36,0.00
2013-7-22,82,70,59,82,47,11,55,22,10,24.25,24.15,32,17,36,0.00
2013-7-23,82,69,59,47,36,23,53,32,12,24.36,24.24,29,11,30,0.00
2013-7-24,84,71,59,83,43,20,72,40,10,24.35,24.25,40,16,43,0.00
2013-7-25,78,65,53,56,51,44,97,64,31,24.41,24.33,25,12,28,0.00
2013-7-26,86,69,54,86,58,18,87,42,10,24.40,24.27,32,17,34,0.00
2013-7-27,82,70,57,82,59,25,88,31,22,24.29,24.13,33,17,33,0.00
2013-7-28,68,58,50,54,50,43,99,76,40,24.19,24.13,25,15,28,0.00
2013-7-29,62,51,44,56,48,43,99,91,71,24.29,24.16,36,15,36,0.18
2013-7-30,66,55,46,52,49,46,99,80,51,24.43,24.28,21,11,22,0.00
2013-7-31,79,65,53,52,43,24,87,52,14,24.43,24.33,24,13,25,0.00
2013-8-1,66,56,51,54,50,42,99,81,43,24.34,24.16,40,15,41,0.35
2013-8-2,51,51,50,51,50,50,99,99,99,24.22,24.18,16,11,17,0.40
2013-8-20,74,69,65,26,24,20,21,18,14,24.28,24.22,20,14,27,0.00
2013-8-21,72,64,55,37,28,16,40,26,17,24.37,24.27,26,12,32,0.00
2013-8-22,83,69,58,48,40,30,54,37,15,24.33,24.21,32,16,35,0.00
2013-8-23,80,67,60,49,42,23,62,43,12,24.21,24.09,43,19,43,0.00
2013-8-24,81,68,57,49,39,18,69,40,10,24.20,24.14,45,13,53,0.00
2013-8-25,85,67,56,85,44,20,59,37,10,24.27,24.17,38,17,42,0.00
2013-8-26,82,67,56,81,40,19,63,39,10,24.28,24.19,42,14,44,0.00
2013-8-27,84,69,58,84,40,19,70,37,10,24.29,24.22,38,13,40,0.00
2013-8-28,81,67,58,56,45,36,86,47,22,24.29,24.21,44,16,54,0.00
2013-8-29,84,69,58,84,45,20,78,47,10,24.34,24.24,27,15,35,0.00
2013-8-30,80,68,58,50,39,17,70,40,10,24.32,24.25,34,17,40,0.00
2013-8-31,71,63,55,40,31,14,51,33,11,24.37,24.31,21,9,29,0.00
2013-9-1,86,69,54,86,48,14,48,21,10,24.31,24.22,32,17,35,0.00
2013-9-2,86,73,65,86,41,17,32,17,10,24.26,24.18,36,19,37,0.00
2013-9-3,82,71,63,43,35,29,45,28,16,24.37,24.26,28,11,28,0.00
2013-9-4,84,71,62,51,45,34,60,41,18,26.40,24.33,21,8,30,0.00
2013-9-5,82,70,61,56,48,43,83,47,26,24.35,24.25,40,16,42,0.00
2013-9-6,79,64,56,59,53,45,99,71,34,24.32,24.21,69,17,69,0.00
2013-9-7,62,57,54,60,56,54,99,97,78,24.35,24.22,33,12,45,0.00
2013-9-8,68,55,49,56,51,41,99,85,55,24.29,24.14,46,11,46,0.00
2013-9-9,64,55,49,53,45,40,96,70,45,24.29,24.16,38,17,38,0.00
2013-9-10,73,62,52,49,42,31,74,50,22,24.37,24.28,21,9,23,0.00
2013-9-11,72,64,57,50,41,31,59,44,27,24.48,24.37,32,13,34,0.00
2013-9-12,79,64,53,45,41,31,61,45,20,24.47,24.28,32,19,37,0.00
2013-9-13,78,65,55,47,42,29,68,45,19,24.28,24.11,26,14,29,0.00
2013-9-14,64,57,51,50,47,43,81,68,51,24.33,24.15,30,18,34,0.00
2013-9-15,70,59,50,52,47,43,81,66,45,24.33,24.17,46,28,46,0.00
2013-9-16,78,64,53,52,45,32,93,55,23,24.18,24.04,40,22,46,0.00
2013-9-17,62,55,48,52,44,37,99,71,42,24.11,23.92,34,14,36,0.00
2013-9-18,52,44,32,46,39,32,99,83,52,24.22,23.91,41,20,44,0.00
2013-9-19,59,45,32,40,34,29,99,69,35,24.33,24.22,17,10,21,0.00
2013-9-20,69,54,41,69,33,9,70,38,10,24.25,24.02,32,20,36,0.00
2013-9-21,76,62,53,76,21,12,34,20,10,24.03,23.88,37,21,42,0.00
2013-9-22,60,52,45,43,34,24,80,52,30,23.94,23.88,33,13,35,0.00
2013-9-23,53,46,41,38,30,22,90,56,31,24.12,23.93,51,23,51,0.00
2013-9-24,49,43,38,44,35,29,99,75,50,24.12,23.96,40,17,41,0.00
2013-9-25,40,37,31,39,36,21,99,95,64,23.98,23.91,44,14,50,0.00
2013-9-26,35,32,29,35,26,14,99,83,49,24.15,23.97,41,6,46,0.00
2013-9-27,42,36,29,32,29,24,99,76,56,24.15,24.05,35,11,36,0.00
2013-9-28,51,44,37,38,34,31,80,69,54,24.07,23.94,51,23,61,0.00
2013-9-29,53,45,39,38,32,27,93,61,47,23.96,23.74,66,40,66,0.00
2013-9-30,47,42,38,41,29,21,91,61,38,24.04,23.71,62,38,67,0.00
2013-10-1,46,40,34,29,26,22,71,56,40,24.15,24.02,49,23,49,0.00
2013-10-2,51,39,32,27,22,14,75,53,23,24.23,24.13,28,15,29,0.00
2013-10-3,36,28,25,31,27,25,99,96,66,24.43,24.13,27,11,27,0.00
2013-10-4,38,31,26,36,26,21,99,83,57,24.51,24.41,23,3,26,0.00
2013-10-5,49,40,30,29,25,18,71,54,42,24.40,24.35,35,18,41,0.00
2013-10-6,62,52,46,30,23,14,49,34,15,24.37,24.21,37,20,40,0.00
2013-10-7,64,53,44,28,22,14,52,31,15,24.20,23.96,30,20,32,0.00
2013-10-8,45,40,35,29,24,19,63,53,38,24.12,23.94,49,20,49,0.00
2013-10-9,49,35,27,38,31,25,99,85,61,24.20,24.02,28,11,34,0.00
2013-10-10,50,40,34,34,30,20,93,70,36,24.02,23.94,29,15,30,0.00
2013-10-11,47,36,30,34,29,22,99,77,53,24.17,24.02,30,11,30,0.00
2013-10-12,42,34,30,33,27,22,99,77,50,24.25,24.17,15,7,17,0.00
2013-10-13,38,34,30,35,31,29,99,92,76,24.32,24.24,23,11,25,0.00
2013-10-14,36,31,28,36,30,28,99,97,84,24.47,24.31,18,10,19,0.00
2013-10-15,47,34,25,31,25,19,97,72,33,24.45,24.22,30,15,30,0.00
2013-10-16,40,33,28,31,24,18,99,75,45,24.29,24.17,36,14,36,0.00
2013-10-17,32,29,26,32,29,26,99,99,99,24.32,24.23,35,11,35,0.00
2013-10-18,45,36,27,30,26,22,99,70,49,24.32,24.17,27,14,27,0.00
2013-10-19,51,42,35,34,28,25,94,58,40,24.20,24.09,34,18,35,0.00
2013-10-20,49,40,32,37,32,29,99,77,52,24.24,24.21,30,11,30,0.00
2013-10-21,54,46,39,37,32,29,73,60,47,24.29,24.23,28,14,34,0.00
2013-10-22,59,50,42,38,31,23,72,49,25,24.29,24.27,17,10,21,0.00
2013-10-23,56,45,40,37,33,29,76,64,47,24.35,24.29,20,8,21,0.00
2013-10-24,55,44,33,39,34,28,99,72,46,24.35,24.25,19,13,19,0.00
2013-10-25,57,50,45,33,27,19,52,40,26,24.40,24.26,30,12,30,0.00
2013-10-26,58,50,41,58,22,-3,57,28,10,24.39,24.16,40,21,43,0.00
2013-10-27,51,39,18,28,19,4,99,53,16,24.26,24.05,49,27,50,0.00
2013-10-28,18,12,11,17,11,9,98,95,94,24.28,24.17,17,3,18,0.00
2013-10-29,25,18,11,25,17,9,99,97,94,24.16,23.96,0,0,0,0.00
2013-10-30,37,30,22,27,23,21,99,77,54,24.02,23.94,33,8,33,0.00
2013-10-31,39,34,32,28,25,22,77,69,63,24.12,23.96,50,25,52,0.00
2013-11-1,41,35,31,28,24,22,74,65,53,24.24,24.12,38,23,38,0.00
2013-11-2,50,37,31,34,27,23,98,68,38,24.21,23.78,46,24,48,0.00
2013-11-3,32,25,18,26,18,14,99,78,57,24.03,23.80,47,26,49,0.00
2013-11-4,29,19,16,29,18,15,99,96,87,24.12,24.02,18,3,20,0.00
2013-11-5,30,24,17,24,14,9,95,69,48,24.12,24.07,43,20,43,0.00
2013-11-6,33,30,27,26,21,16,87,69,56,24.34,24.10,40,26,44,0.00
2013-11-7,44,34,28,35,28,19,99,77,64,24.33,23.83,52,22,57,0.05
2013-11-8,35,32,29,26,23,18,78,69,61,24.16,23.86,52,34,54,0.18
2013-11-9,38,32,27,25,18,11,69,57,32,24.26,24.16,34,17,34,0.00
2013-11-10,37,28,19,32,24,18,99,85,61,24.29,24.21,17,6,19,0.00
2013-11-11,44,32,19,35,29,19,99,91,72,24.47,24.30,22,6,23,0.00
2013-11-12,55,44,34,32,26,18,94,53,24,24.46,24.32,36,21,36,0.00
2013-11-13,45,40,33,34,27,21,72,61,42,24.33,24.18,55,33,64,0.63
2013-11-14,35,33,30,24,21,19,68,62,53,24.22,23.83,43,26,51,0.00
2013-11-15,36,30,28,21,18,15,71,61,50,23.84,23.51,52,29,55,0.00
2013-11-16,32,24,13,26,20,12,99,84,56,23.70,23.46,42,15,55,0.00
2013-11-17,31,25,19,21,16,13,99,68,54,24.03,23.69,46,24,49,0.00
2013-11-18,43,36,28,17,14,9,60,42,26,24.04,23.90,48,18,50,0.00
2013-11-19,47,36,3,28,20,1,99,55,36,23.90,23.76,45,21,45,0.00
2013-11-20,11,0,-4,9,-4,-8,95,83,61,24.27,23.85,27,10,28,0.00
2013-11-21,20,12,1,8,-3,-11,76,52,24,24.43,24.26,37,14,37,0.00
2013-11-22,30,23,18,8,2,-6,50,39,31,24.54,24.41,31,10,34,0.00
2013-11-23,36,27,19,14,8,4,54,44,34,24.51,24.23,27,18,27,0.00
2013-11-24,45,35,23,22,10,2,93,40,19,24.31,24.18,30,16,35,0.00
2013-11-25,45,35,23,22,19,16,92,55,33,24.41,24.30,18,8,20,0.00
2013-11-26,47,38,31,23,20,16,65,49,30,24.41,24.21,29,12,36,0.00
2013-11-27,48,40,30,21,18,16,65,42,31,24.23,24.17,33,11,37,0.00
2013-11-28,48,36,26,23,18,7,81,52,19,24.20,24.13,40,21,43,0.00
2013-11-29,45,40,34,28,18,13,77,41,30,24.22,24.15,44,24,46,0.00
2013-11-30,39,36,33,29,27,25,82,71,58,24.22,24.15,47,28,47,0.00
2013-12-1,38,35,33,33,29,26,97,77,65,24.18,23.81,53,25,53,0.00
2013-12-2,37,18,-3,33,15,-6,99,89,72,23.95,23.71,49,21,54,0.00
2013-12-3,-3,-7,-11,-6,-10,-15,87,85,82,24.12,23.94,38,26,40,0.00
2013-12-4,-6,-10,-14,-10,-14,-19,85,83,79,24.14,24.09,27,6,27,0.00
2013-12-5,7,-10,-20,4,-14,-25,89,82,76,24.18,24.06,0,0,0,0.00
2013-12-6,-16,-23,-27,-21,-28,-33,77,74,72,24.22,24.16,0,0,0,0.00
2013-12-7,-10,-19,-27,-14,-24,-33,81,77,72,24.17,23.93,0,0,0,0.00
2013-12-8,1,-6,-15,-2,-10,-19,88,84,76,24.09,23.91,0,0,0,0.00
2013-12-9,18,8,-4,11,2,-11,88,76,66,24.06,23.98,54,18,55,1.67
2013-12-10,18,14,8,14,10,6,96,87,71,24.22,23.94,61,27,63,2.46
2013-12-11,29,21,14,18,13,9,81,70,61,24.26,24.16,50,33,55,0.07
2013-12-12,37,32,26,24,19,16,73,57,42,24.26,24.03,66,28,72,2.79
2013-12-13,31,29,27,23,21,18,79,73,62,24.25,24.02,43,29,46,0.00
2013-12-14,38,33,28,28,24,20,80,70,48,24.25,24.07,66,44,74,19.29
2013-12-15,40,38,36,26,22,17,65,52,40,24.19,24.09,69,39,78,0.01
2013-12-16,38,35,34,25,22,18,65,58,45,24.32,24.13,59,34,60,0.21
2013-12-17,51,42,33,21,14,4,61,34,15,24.31,23.99,55,21,55,0.00
2013-12-18,42,28,-5,26,14,-8,99,64,28,23.99,23.89,41,19,56,0.00
2013-12-19,11,-1,-10,2,-5,-14,86,82,65,24.11,23.92,11,3,11,0.00
2013-12-20,21,16,8,20,9,-2,99,74,62,23.93,23.65,39,20,40,0.00
2013-12-21,21,18,12,19,17,11,99,96,85,24.01,23.66,23,7,26,0.00
2013-12-22,29,13,3,26,10,0,99,85,65,24.20,23.99,26,8,30,0.00
2013-12-23,37,32,23,32,27,17,99,82,69,24.19,23.97,55,30,58,0.02
2013-12-24,28,25,23,26,18,13,99,75,63,24.36,24.01,49,31,53,0.05
2013-12-25,37,30,21,18,7,-12,67,42,12,24.36,24.18,52,26,59,0.19
2013-12-26,44,39,33,29,25,18,67,58,48,24.28,24.14,62,37,62,1.30
2013-12-27,48,43,38,26,18,9,50,37,24,24.26,23.97,61,31,61,0.04
2013-12-28,40,14,1,20,10,-2,96,84,36,24.33,24.01,52,15,62,0.22
2013-12-29,29,25,18,20,16,11,89,69,55,24.30,23.98,56,32,58,0.28
2013-12-30,38,31,24,29,22,20,86,69,54,24.19,24.00,47,25,50,0.00
2013-12-31,35,32,26,30,27,23,99,82,71,24.14,23.98,54,29,54,0.04
2014-1-1,32,26,22,23,19,16,99,76,55,24.33,24.13,33,16,36,0.00
2014-1-2,41,35,28,28,21,15,71,56,45,24.25,23.89,50,26,50,0.00